createdAt,value
2016-03-27T09:36:02.430Z,60864
2016-03-27T09:36:15.430Z,61888
2016-03-27T09:36:28.729Z,65344
2016-03-27T09:36:42.011Z,74656
2016-03-27T09:36:55.307Z,71104
2016-03-27T09:37:08.604Z,73504
2016-03-27T09:37:21.729Z,77536
2016-03-27T09:37:34.996Z,76160
2016-03-27T09:37:48.277Z,75840
2016-03-27T09:38:01.590Z,77248
2016-03-27T09:38:15.699Z,78560
2016-03-27T09:38:28.982Z,72288
2016-03-27T09:38:42.264Z,67936
2016-03-27T09:38:55.545Z,65600
2016-03-27T09:39:08.842Z,67232
2016-03-27T09:39:22.107Z,66208
2016-03-27T09:39:35.375Z,66528
2016-03-27T09:39:48.687Z,67520
2016-03-27T09:40:01.969Z,68096
2016-03-27T09:40:15.250Z,71168
2016-03-27T09:40:28.533Z,69056
2016-03-27T09:40:41.830Z,68896
2016-03-27T09:40:55.111Z,67840
2016-03-27T09:41:08.393Z,67200
2016-03-27T09:41:21.689Z,63808
2016-03-27T09:41:34.974Z,62848
2016-03-27T09:41:48.271Z,62688
2016-03-27T09:42:01.567Z,60480
2016-03-27T09:42:14.849Z,60640
2016-03-27T09:42:28.115Z,63328
2016-03-27T09:42:41.412Z,65472
2016-03-27T09:42:54.709Z,66784
2016-03-27T09:43:07.990Z,65216
2016-03-27T09:43:21.272Z,63648
2016-03-27T09:43:34.555Z,61088
2016-03-27T09:43:47.836Z,59456
2016-03-27T09:44:01.164Z,59200
2016-03-27T09:44:14.445Z,58144
2016-03-27T09:44:27.730Z,61536
2016-03-27T09:44:40.995Z,61504
2016-03-27T09:44:54.308Z,62624
2016-03-27T09:45:07.589Z,63008
2016-03-27T09:45:20.870Z,64960
2016-03-27T09:45:34.185Z,66336
2016-03-27T09:45:47.450Z,65184
2016-03-27T09:46:00.747Z,63872
2016-03-27T09:46:14.044Z,63424
2016-03-27T09:46:27.328Z,63264
2016-03-27T09:46:40.594Z,65152
2016-03-27T09:46:53.891Z,66784
2016-03-27T09:47:07.172Z,66368
2016-03-27T09:47:20.438Z,66112
2016-03-27T09:47:33.721Z,69280
2016-03-27T09:47:47.018Z,69344
2016-03-27T09:48:00.284Z,71808
2016-03-27T09:48:13.877Z,73792
2016-03-27T09:48:27.192Z,75776
2016-03-27T09:48:40.473Z,73984
2016-03-27T09:48:53.754Z,73376
2016-03-27T09:49:07.067Z,72672
2016-03-27T09:49:20.317Z,71808
2016-03-27T09:49:33.601Z,72576
2016-03-27T09:49:46.898Z,75424
2016-03-27T09:50:00.164Z,77888
2016-03-27T09:50:13.476Z,79616
2016-03-27T09:50:26.776Z,78432
2016-03-27T09:50:40.042Z,77792
2016-03-27T09:50:53.323Z,78656
2016-03-27T09:51:06.620Z,77664
2016-03-27T09:51:19.917Z,77792
2016-03-27T09:51:33.185Z,79200
2016-03-27T09:51:46.466Z,81888
2016-03-27T09:51:59.607Z,79712
2016-03-27T09:52:12.888Z,77472
2016-03-27T09:52:26.172Z,76000
2016-03-27T09:52:39.484Z,76192
2016-03-27T09:52:52.765Z,76000
2016-03-27T09:53:06.031Z,76640
2016-03-27T09:53:19.328Z,76672
2016-03-27T09:53:32.628Z,77792
2016-03-27T09:53:45.925Z,79136
2016-03-27T09:53:59.237Z,79296
2016-03-27T09:54:12.518Z,80480
2016-03-27T09:54:25.802Z,80928
2016-03-27T09:54:39.083Z,79744
2016-03-27T09:54:52.380Z,80288
2016-03-27T09:55:05.661Z,80672
2016-03-27T09:55:18.958Z,82016
2016-03-27T09:55:32.243Z,81568
2016-03-27T09:55:45.524Z,81952
2016-03-27T09:55:58.806Z,80416
2016-03-27T09:56:12.118Z,79584
2016-03-27T09:56:25.401Z,79104
2016-03-27T09:56:38.683Z,78816
2016-03-27T09:56:51.964Z,78144
2016-03-27T09:57:05.214Z,76608
2016-03-27T09:57:18.479Z,78464
2016-03-27T09:57:31.763Z,78208
2016-03-27T09:57:45.044Z,76352
2016-03-27T09:57:58.310Z,76928
2016-03-27T09:58:11.591Z,78944
2016-03-27T09:58:24.876Z,78560
2016-03-27T09:58:38.157Z,78752
2016-03-27T09:58:51.439Z,76640
2016-03-27T09:59:04.735Z,75808
2016-03-27T09:59:18.017Z,75072
2016-03-27T09:59:30.800Z,74400
2016-03-27T09:59:43.956Z,76128
2016-03-27T09:59:57.237Z,76640
2016-03-27T10:00:10.519Z,76416
2016-03-27T10:00:23.818Z,74272
2016-03-27T10:00:37.099Z,73536
2016-03-27T10:00:50.380Z,76160
2016-03-27T10:01:03.661Z,77088
2016-03-27T10:01:16.943Z,77696
2016-03-27T10:01:30.228Z,79232
2016-03-27T10:01:43.509Z,80736
2016-03-27T10:01:56.806Z,81024
2016-03-27T10:02:10.103Z,78112
2016-03-27T10:02:23.368Z,78912
2016-03-27T10:02:36.667Z,81344
2016-03-27T10:02:49.964Z,84320
2016-03-27T10:03:03.245Z,88768
2016-03-27T10:03:16.511Z,90592
2016-03-27T10:03:29.998Z,89472
2016-03-27T10:03:43.264Z,87168
2016-03-27T10:03:56.764Z,90784
2016-03-27T10:04:10.061Z,92160
2016-03-27T10:04:23.327Z,93376
2016-03-27T10:04:36.595Z,93408
2016-03-27T10:04:49.876Z,93376
2016-03-27T10:05:03.158Z,92480
2016-03-27T10:05:16.439Z,94048
2016-03-27T10:05:29.722Z,91872
2016-03-27T10:05:43.019Z,93024
2016-03-27T10:05:56.300Z,93792
2016-03-27T10:06:09.628Z,95648
2016-03-27T10:06:22.910Z,94592
2016-03-27T10:06:36.225Z,94336
2016-03-27T10:06:49.506Z,91872
2016-03-27T10:07:02.788Z,98048
2016-03-27T10:07:16.069Z,100832
2016-03-27T10:07:29.338Z,102368
2016-03-27T10:07:42.634Z,103072
2016-03-27T10:07:55.916Z,105504
2016-03-27T10:08:09.181Z,102560
2016-03-27T10:08:22.463Z,101504
2016-03-27T10:08:35.746Z,100576
2016-03-27T10:08:49.027Z,99360
2016-03-27T10:09:02.308Z,99712
2016-03-27T10:09:15.605Z,98528
2016-03-27T10:09:28.874Z,97792
2016-03-27T10:09:42.155Z,96768
2016-03-27T10:09:55.468Z,92160
2016-03-27T10:10:08.733Z,91488
2016-03-27T10:10:22.014Z,83712
2016-03-27T10:10:35.299Z,83040
2016-03-27T10:10:48.580Z,82880
2016-03-27T10:11:01.861Z,88832
2016-03-27T10:11:15.158Z,89600
2016-03-27T10:11:28.441Z,84480
2016-03-27T10:11:41.707Z,79584
2016-03-27T10:11:54.832Z,79840
2016-03-27T10:12:08.113Z,80224
2016-03-27T10:12:21.394Z,84384
2016-03-27T10:12:34.522Z,81984
2016-03-27T10:12:47.819Z,82656
2016-03-27T10:13:01.116Z,97728
2016-03-27T10:13:14.413Z,98400
2016-03-27T10:13:27.713Z,104960
2016-03-27T10:13:40.994Z,102016
2016-03-27T10:13:54.260Z,101408
2016-03-27T10:14:07.557Z,96128
2016-03-27T10:14:20.838Z,96576
2016-03-27T10:14:34.121Z,93120
2016-03-27T10:14:47.434Z,92480
2016-03-27T10:15:00.715Z,85248
2016-03-27T10:15:13.996Z,84736
2016-03-27T10:15:27.296Z,84608
2016-03-27T10:15:40.577Z,83968
2016-03-27T10:15:53.843Z,86976
2016-03-27T10:16:07.140Z,90080
2016-03-27T10:16:20.452Z,90368
2016-03-27T10:16:33.737Z,95488
2016-03-27T10:16:47.002Z,91104
2016-03-27T10:17:00.299Z,93888
2016-03-27T10:17:13.424Z,94528
2016-03-27T10:17:26.707Z,93376
2016-03-27T10:17:39.848Z,92544
2016-03-27T10:17:53.114Z,87392
2016-03-27T10:18:06.473Z,83904
2016-03-27T10:18:19.910Z,89920
2016-03-27T10:18:33.210Z,95136
2016-03-27T10:18:46.492Z,92736
2016-03-27T10:18:59.788Z,104128
2016-03-27T10:19:27.245Z,103328
2016-03-27T10:19:40.510Z,103584
2016-03-27T10:19:53.807Z,107328
2016-03-27T10:20:07.088Z,111808
2016-03-27T10:20:20.370Z,107808
2016-03-27T10:20:33.653Z,100928
2016-03-27T10:20:46.981Z,98912
2016-03-27T10:21:00.247Z,93280
2016-03-27T10:21:13.543Z,85376
2016-03-27T10:21:26.844Z,86432
2016-03-27T10:21:40.110Z,79936
2016-03-27T10:21:53.376Z,78272
2016-03-27T10:22:06.672Z,75488
2016-03-27T10:22:19.938Z,67840
2016-03-27T10:22:33.253Z,71968
2016-03-27T10:22:46.534Z,73600
2016-03-27T10:22:59.831Z,71872
2016-03-27T10:23:13.096Z,77120
2016-03-27T10:23:26.380Z,76832
2016-03-27T10:23:39.661Z,79616
2016-03-27T10:23:52.942Z,79616
2016-03-27T10:24:06.239Z,78560
2016-03-27T10:24:19.520Z,79008
2016-03-27T10:24:32.805Z,84672
2016-03-27T10:24:46.087Z,88544
2016-03-27T10:24:59.368Z,90016
2016-03-27T10:25:12.868Z,90112
2016-03-27T10:25:25.995Z,89120
2016-03-27T10:25:39.323Z,90592
2016-03-27T10:25:52.589Z,89312
2016-03-27T10:26:05.839Z,93376
2016-03-27T10:26:19.104Z,92992
2016-03-27T10:26:32.372Z,95552
2016-03-27T10:26:45.638Z,98592
2016-03-27T10:26:58.903Z,98752
2016-03-27T10:27:12.184Z,96992
2016-03-27T10:27:25.470Z,97280
2016-03-27T10:27:38.798Z,90176
2016-03-27T10:27:52.095Z,89600
2016-03-27T10:28:05.376Z,89568
2016-03-27T10:28:18.657Z,81824
2016-03-27T10:28:31.956Z,83840
2016-03-27T10:28:45.237Z,87648
2016-03-27T10:28:58.362Z,83872
2016-03-27T10:29:11.675Z,86592
2016-03-27T10:29:24.943Z,95744
2016-03-27T10:29:38.225Z,102944
2016-03-27T10:29:51.522Z,110400
2016-03-27T10:30:04.803Z,111008
2016-03-27T10:30:18.084Z,116192
2016-03-27T10:30:31.399Z,115104
2016-03-27T10:30:44.680Z,113056
2016-03-27T10:30:57.977Z,107936
2016-03-27T10:31:11.117Z,111424
2016-03-27T10:31:24.402Z,115168
2016-03-27T10:31:37.683Z,106208
2016-03-27T10:31:50.964Z,101888
2016-03-27T10:32:04.245Z,93888
2016-03-27T10:32:17.527Z,80128
2016-03-27T10:32:30.810Z,67968
2016-03-27T10:32:44.122Z,67328
2016-03-27T10:32:57.404Z,67680
2016-03-27T10:33:10.888Z,70688
2016-03-27T10:33:24.564Z,72480
2016-03-27T10:33:37.845Z,72896
2016-03-27T10:33:51.126Z,73344
2016-03-27T10:34:04.408Z,73600
2016-03-27T10:34:17.704Z,74944
2016-03-27T10:34:30.972Z,77504
2016-03-27T10:34:44.253Z,78880
2016-03-27T10:34:57.550Z,80800
2016-03-27T10:35:10.831Z,81504
2016-03-27T10:35:23.941Z,85152
2016-03-27T10:35:37.240Z,85920
2016-03-27T10:35:50.521Z,87552
2016-03-27T10:36:03.787Z,92832
2016-03-27T10:36:17.083Z,88384
2016-03-27T10:36:30.369Z,79456
2016-03-27T10:36:43.634Z,72544
2016-03-27T10:36:56.931Z,67360
2016-03-27T10:37:10.212Z,67040
2016-03-27T10:37:23.494Z,66688
2016-03-27T10:37:36.777Z,67072
2016-03-27T10:37:49.918Z,67040
2016-03-27T10:38:03.199Z,63488
2016-03-27T10:38:16.480Z,61376
2016-03-27T10:38:29.780Z,59648
2016-03-27T10:38:43.202Z,58528
2016-03-27T10:38:56.483Z,59616
2016-03-27T10:39:09.780Z,60576
2016-03-27T10:39:22.889Z,61216
2016-03-27T10:39:36.189Z,60768
2016-03-27T10:39:49.486Z,61024
2016-03-27T10:40:02.783Z,61728
2016-03-27T10:40:16.064Z,64832
2016-03-27T10:40:29.347Z,64672
2016-03-27T10:40:42.644Z,64256
2016-03-27T10:40:55.957Z,63968
2016-03-27T10:41:09.269Z,64832
2016-03-27T10:41:22.551Z,65024
2016-03-27T10:41:35.835Z,65376
2016-03-27T10:41:49.132Z,66112
2016-03-27T10:42:02.429Z,66432
2016-03-27T10:42:15.710Z,65184
2016-03-27T10:42:29.010Z,64224
2016-03-27T10:42:42.307Z,64352
2016-03-27T10:42:55.572Z,63392
2016-03-27T10:43:08.853Z,61568
2016-03-27T10:43:21.963Z,59584
2016-03-27T10:43:35.246Z,57856
2016-03-27T10:43:48.527Z,57696
2016-03-27T10:44:01.137Z,58400
2016-03-27T10:44:14.434Z,58048
2016-03-27T10:44:27.718Z,57024
2016-03-27T10:44:41.015Z,57856
2016-03-27T10:44:54.280Z,57824
2016-03-27T10:45:07.562Z,59040
2016-03-27T10:45:20.843Z,59744
2016-03-27T10:45:34.143Z,60832
2016-03-27T10:45:47.440Z,59008
2016-03-27T10:46:00.705Z,61600
2016-03-27T10:46:13.986Z,63520
2016-03-27T10:46:27.271Z,61824
2016-03-27T10:46:40.552Z,59584
2016-03-27T10:46:53.849Z,62656
2016-03-27T10:47:07.161Z,61280
2016-03-27T10:47:20.505Z,59072
2016-03-27T10:47:33.774Z,60128
2016-03-27T10:47:47.039Z,61312
2016-03-27T10:48:00.305Z,62016
2016-03-27T10:48:13.649Z,63776
2016-03-27T10:48:26.979Z,65632
2016-03-27T10:48:40.244Z,70656
2016-03-27T10:48:53.510Z,72448
2016-03-27T10:49:06.776Z,71232
2016-03-27T10:49:20.057Z,68384
2016-03-27T10:49:33.371Z,67232
2016-03-27T10:49:46.668Z,67776
2016-03-27T10:49:59.950Z,68128
2016-03-27T10:50:13.231Z,67104
2016-03-27T10:50:26.546Z,67424
2016-03-27T10:50:39.843Z,69216
2016-03-27T10:50:53.156Z,69856
2016-03-27T10:51:06.453Z,69440
2016-03-27T10:51:19.749Z,66080
2016-03-27T10:51:33.034Z,63456
2016-03-27T10:51:46.299Z,66528
2016-03-27T10:51:59.596Z,70656
2016-03-27T10:52:12.877Z,72608
2016-03-27T10:52:26.161Z,73920
2016-03-27T10:52:39.442Z,76416
2016-03-27T10:52:52.723Z,78656
2016-03-27T10:53:05.989Z,83616
2016-03-27T10:53:19.286Z,86080
2016-03-27T10:53:32.601Z,84672
2016-03-27T10:53:45.898Z,85408
2016-03-27T10:53:59.211Z,85056
2016-03-27T10:54:12.476Z,85504
2016-03-27T10:54:25.745Z,86816
2016-03-27T10:54:39.026Z,85792
2016-03-27T10:54:52.307Z,82496
2016-03-27T10:55:05.589Z,82688
2016-03-27T10:55:18.901Z,84128
2016-03-27T10:55:32.170Z,85376
2016-03-27T10:55:45.420Z,83520
2016-03-27T10:55:58.701Z,86176
2016-03-27T10:56:11.810Z,88992
2016-03-27T10:56:25.094Z,92096
2016-03-27T10:56:38.390Z,95648
2016-03-27T10:56:51.703Z,94336
2016-03-27T10:57:04.969Z,94240
2016-03-27T10:57:18.078Z,94144
2016-03-27T10:57:31.378Z,92000
2016-03-27T10:57:44.643Z,87616
2016-03-27T10:57:57.940Z,91904
2016-03-27T10:58:11.472Z,92992
2016-03-27T10:58:24.803Z,90656
2016-03-27T10:58:38.084Z,90304
2016-03-27T10:58:51.365Z,85344
2016-03-27T10:59:04.850Z,87232
2016-03-27T10:59:18.115Z,88832
2016-03-27T10:59:31.414Z,90880
2016-03-27T10:59:44.742Z,91616
2016-03-27T10:59:58.039Z,93664
2016-03-27T11:00:11.320Z,92224
2016-03-27T11:00:24.605Z,90816
2016-03-27T11:00:37.901Z,89824
2016-03-27T11:00:51.183Z,88992
2016-03-27T11:01:04.495Z,89408
2016-03-27T11:01:17.808Z,90048
2016-03-27T11:01:31.092Z,88096
2016-03-27T11:01:44.373Z,89760
2016-03-27T11:01:57.654Z,88960
2016-03-27T11:02:10.951Z,85984
2016-03-27T11:02:24.248Z,84064
2016-03-27T11:02:37.563Z,85664
2016-03-27T11:02:50.875Z,88096
2016-03-27T11:03:04.156Z,91648
2016-03-27T11:03:17.344Z,91392
2016-03-27T11:03:30.739Z,92544
2016-03-27T11:03:44.020Z,85984
2016-03-27T11:03:57.301Z,86272
2016-03-27T11:04:10.582Z,77824
2016-03-27T11:04:23.879Z,75968
2016-03-27T11:04:37.194Z,72128
2016-03-27T11:04:50.522Z,73216
2016-03-27T11:05:03.819Z,71936
2016-03-27T11:05:17.100Z,71552
2016-03-27T11:05:30.383Z,75840
2016-03-27T11:05:43.664Z,80224
2016-03-27T11:05:56.946Z,77632
2016-03-27T11:06:10.243Z,72032
2016-03-27T11:06:23.571Z,76256
2016-03-27T11:06:36.887Z,78272
2016-03-27T11:06:50.153Z,76736
2016-03-27T11:07:03.278Z,77664
2016-03-27T11:07:16.575Z,74656
2016-03-27T11:07:29.874Z,77088
2016-03-27T11:07:43.170Z,76576
2016-03-27T11:07:56.499Z,77728
2016-03-27T11:08:09.795Z,80448
2016-03-27T11:08:23.077Z,85888
2016-03-27T11:08:36.360Z,91680
2016-03-27T11:08:49.641Z,95424
2016-03-27T11:09:02.938Z,93728
2016-03-27T11:09:16.235Z,80160
2016-03-27T11:09:29.566Z,71392
2016-03-27T11:09:42.894Z,93568
2016-03-27T11:09:56.238Z,101120
2016-03-27T11:10:09.519Z,104032
2016-03-27T11:10:22.816Z,106048
2016-03-27T11:10:36.100Z,107104
2016-03-27T11:10:49.397Z,107872
2016-03-27T11:11:02.710Z,108128
2016-03-27T11:11:16.038Z,108384
2016-03-27T11:11:29.385Z,108224
2016-03-27T11:11:42.666Z,107008
2016-03-27T11:11:55.947Z,106976
2016-03-27T11:12:09.228Z,106016
2016-03-27T11:12:22.510Z,107104
2016-03-27T11:12:35.808Z,108384
2016-03-27T11:12:49.121Z,108448
2016-03-27T11:13:02.465Z,91872
2016-03-27T11:13:15.762Z,81568
2016-03-27T11:13:29.046Z,88128
2016-03-27T11:14:09.780Z,83232
2016-03-27T11:14:23.077Z,84352
2016-03-27T11:14:36.408Z,77984
2016-03-27T11:14:49.736Z,83136
2016-03-27T11:15:03.033Z,89408
2016-03-27T11:15:16.314Z,96992
2016-03-27T11:15:29.457Z,104096
2016-03-27T11:15:42.738Z,90784
2016-03-27T11:15:56.035Z,96576
2016-03-27T11:16:09.363Z,99392
2016-03-27T11:16:22.645Z,104544
2016-03-27T11:16:35.773Z,98464
2016-03-27T11:16:49.054Z,91968
2016-03-27T11:17:02.335Z,96512
2016-03-27T11:17:15.632Z,112544
2016-03-27T11:17:28.947Z,72960
2016-03-27T11:17:42.244Z,90272
2016-03-27T11:17:55.526Z,102784
2016-03-27T11:18:08.807Z,111200
2016-03-27T11:18:22.026Z,109824
2016-03-27T11:18:35.324Z,108672
2016-03-27T11:18:48.621Z,109056
2016-03-27T11:19:01.903Z,108576
2016-03-27T11:19:15.199Z,108928
2016-03-27T11:19:28.500Z,108192
2016-03-27T11:19:41.813Z,106048
2016-03-27T11:19:55.141Z,102848
2016-03-27T11:20:08.422Z,96544
2016-03-27T11:20:21.719Z,96800
2016-03-27T11:20:35.002Z,97888
2016-03-27T11:20:48.284Z,88864
2016-03-27T11:21:01.580Z,79744
2016-03-27T11:21:14.909Z,84352
2016-03-27T11:21:28.239Z,80672
2016-03-27T11:21:41.504Z,87392
2016-03-27T11:21:54.786Z,77888
2016-03-27T11:22:08.082Z,78976
2016-03-27T11:22:21.364Z,78976
2016-03-27T11:22:34.665Z,74752
2016-03-27T11:22:47.961Z,80832
2016-03-27T11:23:01.305Z,74496
2016-03-27T11:23:14.602Z,75200
2016-03-27T11:23:27.885Z,76192
2016-03-27T11:23:41.182Z,71968
2016-03-27T11:23:54.448Z,74432
2016-03-27T11:24:07.745Z,82080
2016-03-27T11:24:21.042Z,79456
2016-03-27T11:24:34.372Z,86112
2016-03-27T11:24:47.528Z,90880
2016-03-27T11:25:00.653Z,89536
2016-03-27T11:25:13.950Z,83840
2016-03-27T11:25:27.234Z,80192
2016-03-27T11:25:40.547Z,78048
2016-03-27T11:25:53.828Z,91104
2016-03-27T11:26:07.156Z,92544
2016-03-27T11:26:20.312Z,84224
2016-03-27T11:26:33.581Z,91680
2016-03-27T11:26:46.846Z,96896
2016-03-27T11:27:00.112Z,98400
2016-03-27T11:27:13.393Z,91840
2016-03-27T11:27:26.678Z,88512
2016-03-27T11:27:39.974Z,84672
2016-03-27T11:27:53.287Z,85632
2016-03-27T11:28:06.584Z,86304
2016-03-27T11:28:19.865Z,82848
2016-03-27T11:28:33.148Z,84256
2016-03-27T11:28:46.430Z,86336
2016-03-27T11:28:59.726Z,87040
2016-03-27T11:29:13.039Z,88320
2016-03-27T11:29:26.370Z,90304
2016-03-27T11:29:39.683Z,89568
2016-03-27T11:29:52.948Z,84960
2016-03-27T11:30:06.229Z,83136
2016-03-27T11:30:19.526Z,83552
2016-03-27T11:30:32.811Z,91584
2016-03-27T11:30:46.107Z,93088
2016-03-27T11:30:59.436Z,88864
2016-03-27T11:31:12.764Z,92032
2016-03-27T11:31:26.063Z,94176
2016-03-27T11:31:39.344Z,93600
2016-03-27T11:31:52.656Z,93280
2016-03-27T11:32:05.938Z,95648
2016-03-27T11:32:19.234Z,94016
2016-03-27T11:32:32.534Z,92288
2016-03-27T11:32:45.847Z,91680
2016-03-27T11:32:59.191Z,89440
2016-03-27T11:33:12.503Z,84032
2016-03-27T11:33:25.834Z,82240
2016-03-27T11:33:39.115Z,79264
2016-03-27T11:33:52.397Z,79648
2016-03-27T11:34:05.694Z,75776
2016-03-27T11:34:19.006Z,76672
2016-03-27T11:34:32.306Z,74944
2016-03-27T11:34:45.618Z,69952
2016-03-27T11:34:58.915Z,74944
2016-03-27T11:35:12.197Z,77312
2016-03-27T11:35:25.496Z,77984
2016-03-27T11:35:38.778Z,73120
2016-03-27T11:35:52.059Z,74752
2016-03-27T11:36:05.387Z,75872
2016-03-27T11:36:18.715Z,73600
2016-03-27T11:36:32.030Z,75456
2016-03-27T11:36:45.311Z,79008
2016-03-27T11:36:58.592Z,77248
2016-03-27T11:37:11.889Z,75904
2016-03-27T11:37:25.172Z,73344
2016-03-27T11:37:38.469Z,69600
2016-03-27T11:37:51.797Z,69728
2016-03-27T11:38:05.125Z,70816
2016-03-27T11:38:18.407Z,71648
2016-03-27T11:38:31.691Z,69248
2016-03-27T11:38:44.972Z,64288
2016-03-27T11:38:58.269Z,66976
2016-03-27T11:39:11.550Z,66048
2016-03-27T11:39:24.847Z,62880
2016-03-27T11:39:38.178Z,61728
2016-03-27T11:39:51.475Z,60384
2016-03-27T11:40:04.756Z,62464
2016-03-27T11:40:18.038Z,59232
2016-03-27T11:40:31.338Z,60512
2016-03-27T11:40:44.634Z,61760
2016-03-27T11:40:57.931Z,64608
2016-03-27T11:41:11.259Z,66112
2016-03-27T11:41:24.588Z,73184
2016-03-27T11:41:37.871Z,73664
2016-03-27T11:41:51.152Z,76256
2016-03-27T11:42:04.433Z,79072
2016-03-27T11:42:17.730Z,75776
2016-03-27T11:42:31.030Z,80064
2016-03-27T11:42:44.327Z,79360
2016-03-27T11:42:57.655Z,80640
2016-03-27T11:43:10.983Z,68672
2016-03-27T11:43:24.483Z,73088
2016-03-27T11:43:37.783Z,83200
2016-03-27T11:43:51.064Z,83488
2016-03-27T11:44:04.361Z,80096
2016-03-27T11:44:17.658Z,89024
2016-03-27T11:44:30.957Z,81920
2016-03-27T11:44:44.301Z,81888
2016-03-27T11:44:57.598Z,78272
2016-03-27T11:45:10.863Z,83392
2016-03-27T11:45:24.144Z,81824
2016-03-27T11:45:37.429Z,84608
2016-03-27T11:45:50.741Z,84896
2016-03-27T11:46:04.054Z,85888
2016-03-27T11:46:17.366Z,84608
2016-03-27T11:46:30.682Z,82880
2016-03-27T11:46:43.963Z,83584
2016-03-27T11:46:57.260Z,86944
2016-03-27T11:47:10.557Z,92512
2016-03-27T11:47:23.854Z,94048
2016-03-27T11:47:37.168Z,94400
2016-03-27T11:47:50.465Z,96832
2016-03-27T11:48:03.793Z,96992
2016-03-27T11:48:17.168Z,95872
2016-03-27T11:48:30.671Z,93088
2016-03-27T11:48:43.952Z,92032
2016-03-27T11:48:57.249Z,95584
2016-03-27T11:49:10.530Z,96640
2016-03-27T11:49:23.827Z,94592
2016-03-27T11:49:51.283Z,92672
2016-03-27T11:50:04.643Z,91744
2016-03-27T11:50:17.924Z,90848
2016-03-27T11:50:31.068Z,90528
2016-03-27T11:50:44.333Z,91840
2016-03-27T11:50:57.615Z,90176
2016-03-27T11:51:10.927Z,93664
2016-03-27T11:51:24.224Z,98304
2016-03-27T11:51:37.570Z,98400
2016-03-27T11:51:50.913Z,96576
2016-03-27T11:52:04.195Z,96032
2016-03-27T11:52:17.476Z,97056
2016-03-27T11:52:30.760Z,96032
2016-03-27T11:52:44.057Z,79200
2016-03-27T11:52:57.370Z,97536
2016-03-27T11:53:10.682Z,99936
2016-03-27T11:53:24.010Z,103392
2016-03-27T11:53:37.294Z,106080
2016-03-27T11:53:50.576Z,105728
2016-03-27T11:54:03.873Z,106272
2016-03-27T11:54:17.169Z,109888
2016-03-27T11:54:30.453Z,102144
2016-03-27T11:54:43.765Z,90976
2016-03-27T11:54:57.109Z,111616
2016-03-27T11:55:10.390Z,110304
2016-03-27T11:55:23.671Z,108928
2016-03-27T11:55:36.971Z,108064
2016-03-27T11:55:50.237Z,106784
2016-03-27T11:56:03.518Z,102848
2016-03-27T11:56:16.831Z,94336
2016-03-27T11:56:30.131Z,102496
2016-03-27T11:56:43.396Z,104768
2016-03-27T11:56:56.677Z,106656
2016-03-27T11:57:09.974Z,101728
2016-03-27T11:57:23.271Z,102784
2016-03-27T11:57:36.571Z,101760
2016-03-27T11:57:49.884Z,102080
2016-03-27T11:58:03.212Z,103360
2016-03-27T11:58:16.493Z,99328
2016-03-27T11:58:29.776Z,102720
2016-03-27T11:58:43.057Z,86976
2016-03-27T11:58:56.339Z,84064
2016-03-27T11:59:09.636Z,108544
2016-03-27T11:59:22.964Z,108384
2016-03-27T11:59:36.295Z,108256
2016-03-27T11:59:49.592Z,107296
2016-03-27T12:00:02.873Z,105440
2016-03-27T12:00:15.998Z,106144
2016-03-27T12:00:29.282Z,104032
2016-03-27T12:00:42.595Z,105088
2016-03-27T12:00:55.907Z,103552
2016-03-27T12:01:09.220Z,103648
2016-03-27T12:01:22.517Z,103008
2016-03-27T12:01:36.112Z,99392
2016-03-27T12:01:49.269Z,100960
2016-03-27T12:02:02.565Z,101568
2016-03-27T12:02:15.862Z,103328
2016-03-27T12:02:29.146Z,105920
2016-03-27T12:02:42.427Z,102464
2016-03-27T12:02:55.739Z,103168
2016-03-27T12:03:09.052Z,101280
2016-03-27T12:03:22.364Z,100832
2016-03-27T12:03:35.650Z,102016
2016-03-27T12:03:48.993Z,99584
2016-03-27T12:04:02.290Z,95840
2016-03-27T12:04:15.603Z,98080
2016-03-27T12:04:28.917Z,99136
2016-03-27T12:04:42.198Z,100192
2016-03-27T12:04:55.480Z,97760
2016-03-27T12:05:08.777Z,98976
2016-03-27T12:05:22.105Z,98912
2016-03-27T12:05:35.405Z,99936
2016-03-27T12:05:48.733Z,101824
2016-03-27T12:06:02.061Z,106176
2016-03-27T12:06:15.373Z,111712
2016-03-27T12:06:28.673Z,110688
2016-03-27T12:06:41.954Z,103296
2016-03-27T12:06:55.236Z,106048
2016-03-27T12:07:08.533Z,109792
2016-03-27T12:07:21.829Z,108992
2016-03-27T12:07:35.144Z,105920
2016-03-27T12:07:48.300Z,102560
2016-03-27T12:08:01.472Z,103264
2016-03-27T12:08:14.753Z,102656
2016-03-27T12:08:28.038Z,99296
2016-03-27T12:08:41.319Z,93952
2016-03-27T12:08:54.600Z,98432
2016-03-27T12:09:07.913Z,92576
2016-03-27T12:09:21.225Z,91680
2016-03-27T12:09:34.541Z,82304
2016-03-27T12:09:47.837Z,78176
2016-03-27T12:10:01.119Z,78656
2016-03-27T12:10:14.400Z,77856
2016-03-27T12:10:27.700Z,76352
2016-03-27T12:10:40.981Z,77664
2016-03-27T12:10:54.262Z,76960
2016-03-27T12:11:07.575Z,71520
2016-03-27T12:11:20.872Z,73984
2016-03-27T12:11:34.139Z,68416
2016-03-27T12:11:47.264Z,70848
2016-03-27T12:12:00.561Z,69472
2016-03-27T12:12:13.842Z,71200
2016-03-27T12:12:27.142Z,72256
2016-03-27T12:12:40.470Z,73792
2016-03-27T12:12:53.658Z,77344
2016-03-27T12:13:06.939Z,75904
2016-03-27T12:13:20.236Z,76096
2016-03-27T12:13:33.519Z,78080
2016-03-27T12:13:46.801Z,73280
2016-03-27T12:14:00.097Z,66656
2016-03-27T12:14:13.426Z,70816
2016-03-27T12:14:26.710Z,72160
2016-03-27T12:14:39.991Z,68064
2016-03-27T12:14:53.288Z,74496
2016-03-27T12:15:06.569Z,76544
2016-03-27T12:15:19.866Z,77088
2016-03-27T12:15:33.196Z,63712
2016-03-27T12:15:46.524Z,68800
2016-03-27T12:15:59.790Z,67104
2016-03-27T12:16:13.071Z,68960
2016-03-27T12:16:26.356Z,66432
2016-03-27T12:16:39.653Z,69440
2016-03-27T12:16:52.810Z,74624
2016-03-27T12:17:06.122Z,71392
2016-03-27T12:17:19.450Z,67744
2016-03-27T12:17:32.749Z,61952
2016-03-27T12:17:46.030Z,60288
2016-03-27T12:17:59.312Z,62496
2016-03-27T12:18:12.608Z,65696
2016-03-27T12:18:25.905Z,62272
2016-03-27T12:18:39.096Z,61664
2016-03-27T12:18:52.783Z,61152
2016-03-27T12:19:06.080Z,60640
2016-03-27T12:19:19.346Z,59232
2016-03-27T12:19:32.645Z,65984
2016-03-27T12:19:45.957Z,66112
2016-03-27T12:19:59.457Z,62976
2016-03-27T12:20:12.754Z,62624
2016-03-27T12:20:26.071Z,60512
2016-03-27T12:20:39.352Z,58560
2016-03-27T12:20:52.633Z,53728
2016-03-27T12:21:05.914Z,50528
2016-03-27T12:21:19.211Z,48928
2016-03-27T12:21:32.510Z,49920
2016-03-27T12:21:45.791Z,51200
2016-03-27T12:21:59.057Z,51648
2016-03-27T12:22:12.369Z,50784
2016-03-27T12:22:25.651Z,49600
2016-03-27T12:22:38.950Z,47936
2016-03-27T12:22:52.231Z,48096
2016-03-27T12:23:05.528Z,49632
2016-03-27T12:23:18.809Z,53344
2016-03-27T12:23:32.125Z,55520
2016-03-27T12:23:45.407Z,57440
2016-03-27T12:23:58.704Z,58848
2016-03-27T12:24:12.000Z,59520
2016-03-27T12:24:25.282Z,60864
2016-03-27T12:24:38.581Z,61184
2016-03-27T12:24:51.862Z,60448
2016-03-27T12:25:05.159Z,57312
2016-03-27T12:25:18.424Z,55648
2016-03-27T12:25:31.708Z,56576
2016-03-27T12:25:44.958Z,60800
2016-03-27T12:25:58.223Z,64448
2016-03-27T12:26:11.504Z,63168
2016-03-27T12:26:24.801Z,62944
2016-03-27T12:26:38.086Z,61344
2016-03-27T12:26:51.367Z,60736
2016-03-27T12:27:04.664Z,61920
2016-03-27T12:27:17.961Z,64288